Tiempo atmosférico en la estación meteorológica de Albarracín, Teruel (1130 m.)



Fecha
DESCASC
Temp. máxima en grados centígrados (hora)
DESCASC
Temp. mínima en grados centígrados (hora)
DESCASC
Temp. media en grados centígrados
DESCASC
Racha de viento máxima en m/sg (hora)
DESCASC
Velocidad máxima media en intervalos de 10 minutos(hora)
DESCASC
Precipitaciones diarias en mm
DESCASC
Precipitaciones de 00:00 a 06:00 en mm
DESCASC
Precipitaciones de 06:00 a 12:00 en mm
DESCASC
Precipitaciones de 12:00 a 18:00 en mm
DESCASC
Precipitaciones de 18:00 a 24:00 en mm
DESCASC
17-10-2019 18 (12:30) 4 (05:10) 11 8.61 (13:10) 4.72 (13:10) 0 0 0 0 0
16-10-2019 19.6 (16:50) 2.9 (08:40) 11.3 7.5 (22:20) 4.17 (22:20) 0 0 0 0 0
15-10-2019 16.5 (17:30) 3.3 (08:40) 9.9 10 (11:10) 6.67 (11:10) 0 0 0 0 0
14-10-2019 19.2 (16:10) 9.1 (23:59) 14.2 13.33 (13:20) 6.67 (13:10) 1.4 0 1.2 0.2 0
13-10-2019 24 (15:20) 10.7 (00:00) 17.3 12.78 (13:40) 6.67 (13:40) 0 0 0 0 0
12-10-2019 24.4 (15:50) 13.4 (00:00) 18.9 9.44 (15:50) 5.56 (03:30) 0 0 0 0 0
10-10-2019 24.6 (16:40) 11.2 (00:00) 17.9 11.11 (15:50) 6.39 (16:20) 0 0 0 0 0
09-10-2019 25.1 (15:30) 9.8 (00:00) 17.5 7.22 (12:30) 4.44 (18:30) 0 0 0 0 0
08-10-2019 27.4 (16:40) 9.6 (00:00) 18.5 6.94 (16:10) 4.17 (09:40) 0 0 0 0 0
07-10-2019 23.9 (14:40) 6.8 (00:00) 15.3 15 (11:50) 8.33 (11:10) 0 0 0 0 0
06-10-2019 23.5 (16:30) 8.2 (00:00) 15.8 6.39 (12:10) 3.89 (13:20) 0 0 0 0 0
05-10-2019 25 (16:40) 7.6 (06:20) 16.3 6.67 (09:00) 4.17 (10:10) 0 0 0 0 0
04-10-2019 25.6 (16:20) 7.3 (00:00) 16.5 7.78 (18:40) 4.17 (09:50) 0 0 0 0 0
03-10-2019 24.8 (17:00) 4 (00:00) 14.4 8.33 (16:40) 4.44 (17:10) 0 0 0 0 0
02-10-2019 18.6 (17:10) 8.8 (00:00) 13.7 11.39 (12:50) 6.67 (12:40) 0 0 0 0 0
01-10-2019 26.1 (16:00) 9 (00:00) 17.6 10 (14:20) 4.72 (14:20) 0 0 0 0 0
30-09-2019 28.6 (17:00) 8 (00:00) 18.3 7.5 (10:00) 4.44 (09:50) 0 0 0 0 0
29-09-2019 28.1 (15:50) 8.3 (00:00) 18.2 7.22 (14:00) 3.89 (15:00) 0 0 0 0 0
28-09-2019 27 (16:10) 7.9 (00:00) 17.5 10.28 (15:50) 5.28 (15:50) 0 0 0 0 0
27-09-2019 26.8 (17:20) 10 (00:00) 18.4 8.89 (15:10) 5 (15:00) 0 0 0 0 0
26-09-2019 26.5 (15:40) 8.3 (00:00) 17.4 8.61 (17:00) 5.28 (17:00) 0 0 0 0 0
25-09-2019 21.8 (16:50) 10.7 (00:00) 16.2 7.22 (17:00) 3.33 (17:00) 0 0 0 0 0
24-09-2019 25.9 (16:30) 8.4 (00:00) 17.1 8.89 (14:50) 5 (15:00) 0 0 0 0 0
23-09-2019 22.4 (17:00) 6.9 (00:00) 14.6 6.11 (16:00) 3.61 (16:00) 0 0 0 0 0
22-09-2019 21.4 (15:30) 11.4 (00:00) 16.4 10.28 (15:10) 5.56 (15:10) 0.4 0 0 0.2 0.2
21-09-2019 22.1 (16:00) 12.3 (00:00) 17.2 9.44 (16:20) 5.28 (00:20) 16.8 16.2 0.6 0 0
20-09-2019 22.4 (14:50) 11 (00:00) 16.7 11.39 (17:50) 6.39 (18:40) 0.4 0 0 0 0.4
19-09-2019 25.3 (15:10) 10.4 (00:00) 17.8 12.5 (20:30) 5.83 (18:10) 14 0 0 0.2 13.8

Gráficas

Temp. máximas Temp. mínimas Temp. medias Precipitaciones Rachas de viento máximas Velocidades máximas media en intervalos de 10 minutos

Datos horarios

Fecha y hora oficial Temperatura (ºC) Velocidad del viento (km/h) Dirección del viento Racha (km/h) Dirección de racha Precipitación (mm) Presión (hPa) Tendencia (hPa) Humedad (%)
2019-10-18 23:00:00 13.9 5 Sur 18 Sudoeste 0 -- -- 70
2019-10-18 22:00:00 14.9 6 Sur 15 Sur 0 -- -- 65
2019-10-18 21:00:00 15.7 9 Sur 15 Sur 0 -- -- 61
2019-10-18 20:00:00 16.4 7 Sur 14 Sur 0 -- -- 60
2019-10-18 19:00:00 17.5 5 Sur 22 Sur 0 -- -- 56
2019-10-18 18:00:00 18.1 5 Sur 29 Sur 0 -- -- 54
2019-10-18 17:00:00 18.5 13 Sur 26 Sudoeste 0 -- -- 54
2019-10-18 16:00:00 19 13 Sur 26 Sudeste 0 -- -- 54
2019-10-18 15:00:00 18.4 12 Sudoeste 29 Sur 0 -- -- 57
2019-10-18 14:00:00 18.1 16 Sur 33 Sudoeste 0 -- -- 57
2019-10-18 13:00:00 17.5 14 Sudoeste 34 Sudoeste 0 -- -- 61
2019-10-18 12:00:00 16.1 10 Sur 22 Sur 0 -- -- 72
2019-10-18 11:00:00 15.8 10 Sudeste 19 Sur 0 -- -- 71
2019-10-18 10:00:00 15 8 Sur 15 Sur 0 -- -- 75
2019-10-18 09:00:00 14.6 9 Sudeste 23 Sur 0 -- -- 77
2019-10-18 08:00:00 14.3 5 Sur 13 Sur 0 -- -- 77
2019-10-18 07:00:00 14 3 Sur 18 Sudoeste 0 -- -- 77
2019-10-18 06:00:00 14.6 8 Sur 29 Sur 0 -- -- 77
2019-10-18 05:00:00 14.5 12 Sur 24 Sur 0 -- -- 77
2019-10-18 04:00:00 14.4 12 Sur 21 Sudeste 0 -- -- 75
2019-10-18 03:00:00 13.4 8 Sur 20 Sur 0 -- -- 79
2019-10-18 02:00:00 13.5 11 Sur 21 Sur 0 -- -- 78
2019-10-18 01:00:00 12.7 8 Sudeste 20 Sur 0 -- -- 80
2019-10-18 00:00:00 12.2 10 Sudeste 22 Sur 0 -- -- 77
2019-10-17 23:00:00 12.2 6 Sudoeste 27 Sur 0 -- -- 77
2019-10-17 22:00:00 12.1 3 Sudoeste 15 Sudoeste 0 -- -- 76
2019-10-17 21:00:00 12.5 3 Oeste 13 Oeste 0 -- -- 74
2019-10-17 20:00:00 13.8 7 Oeste 17 Oeste 0 -- -- 70
2019-10-17 19:00:00 15.4 9 Sudoeste 19 Sudoeste 0 -- -- 64
2019-10-17 18:00:00 17.2 5 Oeste 24 Sudoeste 0 -- -- 58
2019-10-17 17:00:00 17.1 13 Oeste 23 Oeste 0 -- -- 59
2019-10-17 16:00:00 17.3 9 Oeste 17 Oeste 0 -- -- 56
2019-10-17 15:00:00 16.9 7 Oeste 23 Oeste 0 -- -- 59
2019-10-17 14:00:00 16.6 12 Oeste 31 Oeste 0 -- -- 60
2019-10-17 13:00:00 16.8 14 Oeste 28 Sudoeste 0 -- -- 58
2019-10-17 12:00:00 17.4 12 Oeste 26 Sudoeste 0 -- -- 52
2019-10-17 11:00:00 11 9 Sur 13 Sudeste 0 -- -- 49
2019-10-17 10:00:00 8.4 6 Sudeste 10 Sudeste 0 -- -- 53
2019-10-17 09:00:00 4 3 Sur 8 Noroeste 0 -- -- 59
2019-10-17 08:00:00 4.7 2 Norte 13 Este 0 -- -- 57
2019-10-17 07:00:00 5.1 7 Sur 12 Sudeste 0 -- -- 62
2019-10-17 06:00:00 4.6 4 Sudeste 9 Este 0 -- -- 68
2019-10-17 05:00:00 4.2 3 Oeste 8 Oeste 0 -- -- 73
2019-10-17 04:00:00 4.8 0 Calma 11 Sudeste 0 -- -- 72
2019-10-17 03:00:00 5.5 6 Sudeste 13 Sudeste 0 -- -- 68
2019-10-17 02:00:00 7.1 9 Sudeste 14 Sudeste 0 -- -- 62
2019-10-17 01:00:00 9 8 Sudeste 24 Sur 0 -- -- 56
2019-10-17 00:00:00 9.1 10 Sudeste 22 Sudeste 0 -- -- 57
2019-10-16 23:00:00 10.3 7 Sudoeste 27 Sur 0 -- -- 53
2019-10-16 22:00:00 11.8 6 Sur 19 Oeste 0 -- -- 50
2019-10-16 21:00:00 12.8 6 Sudoeste 18 Sudoeste 0 -- -- 45
2019-10-16 20:00:00 14.5 2 Sudeste 14 Sudoeste 0 -- -- 38
2019-10-16 19:00:00 16.7 9 Sudoeste 14 Sudoeste 0 -- -- 33
2019-10-16 18:00:00 19.2 6 Sudoeste 13 Norte 0 -- -- 35
2019-10-16 17:00:00 19.6 4 Nordeste 18 Nordeste 0 -- -- 35
2019-10-16 16:00:00 18.4 10 Norte 19 Norte 0 -- -- 37
2019-10-16 15:00:00 18.1 12 Norte 24 Noroeste 0 -- -- 38
2019-10-16 14:00:00 19.3 10 Sur 23 Sur 0 -- -- 33
2019-10-16 13:00:00 17.5 13 Sudeste 25 Sur 0 -- -- 38
2019-10-16 12:00:00 14.7 5 Noroeste 21 Sur 0 -- -- 42
2019-10-16 11:00:00 12.3 12 Sudeste 19 Sudeste 0 -- -- 49
2019-10-16 10:00:00 7.5 8 Sudeste 12 Sudeste 0 -- -- 68
2019-10-16 09:00:00 3.2 2 Sudoeste 10 Sudeste 0 -- -- 82
2019-10-16 08:00:00 3 2 Noroeste 5 Oeste 0 -- -- 80
2019-10-16 07:00:00 3.8 3 Sur 8 Sudeste 0 -- -- 78
2019-10-16 06:00:00 4.5 2 Sudoeste 9 Sudeste 0 -- -- 75
2019-10-16 05:00:00 4.4 2 Oeste 10 Sudeste 0 -- -- 76
2019-10-16 04:00:00 4.3 0 Calma 12 Sudeste 0 -- -- 76
2019-10-16 03:00:00 4.1 3 Sur 8 Sudeste 0 -- -- 76
2019-10-16 02:00:00 4.9 5 Sudeste 15 Sur 0 -- -- 72
2019-10-16 01:00:00 6 9 Sur 19 Sur 0 -- -- 69
2019-10-16 00:00:00 7.6 11 Sur 21 Sur 0 -- -- 63
2019-10-15 23:00:00 7.8 7 Sudeste 18 Sudeste 0 -- -- 62
2019-10-15 22:00:00 8.8 8 Sur 13 Sur 0 -- -- 59
2019-10-15 21:00:00 9.8 8 Sudoeste 14 Sur 0 -- -- 54
2019-10-15 20:00:00 11.3 5 Sur 14 Sudoeste 0 -- -- 49
2019-10-15 19:00:00 13.1 9 Oeste 17 Sudoeste 0 -- -- 39
2019-10-15 18:00:00 16 6 Sudoeste 17 Oeste 0 -- -- 34
2019-10-15 17:00:00 16.2 5 Noroeste 17 Sur 0 -- -- 30
2019-10-15 16:00:00 16 7 Sudoeste 20 Sudoeste 0 -- -- 31
2019-10-15 15:00:00 15 11 Noroeste 31 Noroeste 0 -- -- 33
2019-10-15 14:00:00 13.7 15 Norte 30 Norte 0 -- -- 40
2019-10-15 13:00:00 12.3 18 Norte 34 Norte 0 -- -- 48
2019-10-15 12:00:00 11 18 Noroeste 36 Oeste 0 -- -- 50
2019-10-15 11:00:00 9.3 21 Noroeste 35 Oeste 0 -- -- 55
2019-10-15 10:00:00 7.5 6 Sudeste 15 Sudeste 0 -- -- 63
2019-10-15 09:00:00 3.6 3 Sudoeste 18 Sudoeste 0 -- -- 77
2019-10-15 08:00:00 3.5 7 Sudeste 13 Sudoeste 0 -- -- 78
2019-10-15 07:00:00 5 3 Nordeste 22 Oeste 0 -- -- 72
2019-10-15 06:00:00 5.6 6 Sudoeste 20 Oeste 0 -- -- 70
2019-10-15 05:00:00 6.2 8 Oeste 35 Oeste 0 -- -- 68
2019-10-15 04:00:00 6.8 16 Oeste 28 Oeste 0 -- -- 67
2019-10-15 03:00:00 6.9 8 Sudoeste 15 Sur 0 -- -- 74
2019-10-15 02:00:00 7.5 6 Sudoeste 15 Oeste 0 -- -- 74
2019-10-15 01:00:00 8.2 6 Sudoeste 16 Oeste 0 -- -- 75
2019-10-15 00:00:00 9.1 5 Sur 20 Sudeste 0 -- -- 71
2019-10-14 23:00:00 9.9 4 Sudeste 25 Sudoeste 0 -- -- 76
2019-10-14 22:00:00 11 12 Oeste 27 Sudoeste 0 -- -- 70
2019-10-14 21:00:00 13.8 7 Sudoeste 32 Oeste 0 -- -- 53
2019-10-14 20:00:00 14.7 13 Sudoeste 37 Sudoeste 0 -- -- 56
2019-10-14 19:00:00 16 19 Sur 43 Sur 0 -- -- 56
2019-10-14 18:00:00 16.9 14 Sudoeste 37 Sur 0 -- -- 60
2019-10-14 17:00:00 16.6 12 Sudoeste 42 Oeste 0 -- -- 64
2019-10-14 16:00:00 19 19 Sur 46 Sur 0 -- -- 57
2019-10-14 15:00:00 18.4 14 Sudeste 43 Sudeste 0 -- -- 62
2019-10-14 14:00:00 17.8 18 Sudeste 48 Sur 0.2 -- -- 67
2019-10-14 13:00:00 16.4 16 Sur 39 Sudeste 0 -- -- 70
2019-10-14 12:00:00 13.4 13 Sudeste 36 Sudeste 1 -- -- 80
2019-10-14 11:00:00 15.3 14 Sur 35 Sur 0.2 -- -- 73
2019-10-14 10:00:00 15.6 21 Sur 40 Sudeste 0 -- -- 63
2019-10-14 09:00:00 14.9 9 Sudoeste 27 Sudeste 0 -- -- 71
2019-10-14 08:00:00 14.8 23 Sudeste 44 Sudeste 0 -- -- 76
2019-10-14 07:00:00 14.1 4 Sur 28 Sudoeste 0 -- -- 78
2019-10-14 06:00:00 14.8 13 Sudoeste 32 Sudoeste 0 -- -- 79
2019-10-14 05:00:00 14.6 15 Sur 27 Sur 0 -- -- 82
2019-10-14 04:00:00 14.5 14 Sudoeste 23 Sudoeste 0 -- -- 83
2019-10-14 03:00:00 14.1 14 Sudoeste 25 Sudoeste 0 -- -- 84
2019-10-14 02:00:00 14.2 13 Sudoeste 25 Sudoeste 0 -- -- 81
2019-10-14 01:00:00 15 14 Sur 23 Sur 0 -- -- 81
2019-10-14 00:00:00 14.2 7 Sur 16 Sudoeste 0 -- -- 82
2019-10-13 23:00:00 14 4 Sudoeste 14 Oeste 0 -- -- 69
2019-10-13 22:00:00 16 5 Sudeste 15 Sur 0 -- -- 66
2019-10-13 21:00:00 16.3 2 Noroeste 7 Sudoeste 0 -- -- 49
2019-10-13 20:00:00 19.3 4 Sur 18 Sur 0 -- -- 40
2019-10-13 19:00:00 21.6 11 Sur 28 Sudeste 0 -- -- 32
2019-10-13 18:00:00 23.2 11 Sudeste 39 Sudeste 0 -- -- 32
2019-10-13 17:00:00 23.5 21 Sudeste 40 Sudeste 0 -- -- 33
2019-10-13 16:00:00 23.3 18 Sur 40 Sur 0 -- -- 38
2019-10-13 15:00:00 23.5 17 Sur 38 Sudoeste 0 -- -- 38
2019-10-13 14:00:00 22.8 17 Sur 46 Sudeste 0 -- -- 41
2019-10-13 13:00:00 22.2 15 Sudeste 37 Sudeste 0 -- -- 50
2019-10-13 12:00:00 21 17 Sudeste 27 Sur 0 -- -- 58
2019-10-13 11:00:00 18.6 10 Sudeste 21 Sudeste 0 -- -- 66
2019-10-13 10:00:00 15.6 10 Sudeste 20 Sur 0 -- -- 78
2019-10-13 09:00:00 13.8 14 Sur 25 Sur 0 -- -- 84
2019-10-13 08:00:00 13.4 12 Sur 29 Sudoeste 0 -- -- 84
2019-10-13 07:00:00 13.2 12 Sur 27 Sudoeste 0 -- -- 86
2019-10-13 06:00:00 11.8 5 Sudeste 21 Sur 0 -- -- 88
2019-10-13 05:00:00 10.7 0 Calma 11 Sudeste 0 -- -- 91
2019-10-13 04:00:00 11.7 2 Nordeste 6 Sur 0 -- -- 89
2019-10-13 03:00:00 12.4 0 Calma 12 Oeste 0 -- -- 87
2019-10-13 02:00:00 13.3 10 Sudoeste 14 Sur 0 -- -- 86
2019-10-13 01:00:00 14.2 7 Sur 18 Sudoeste 0 -- -- 86
2019-10-13 00:00:00 14.4 8 Sur 22 Sur 0 -- -- 84
2019-10-12 23:00:00 15.2 10 Sudeste 19 Sudeste 0 -- -- 79
2019-10-12 22:00:00 15.7 7 Sur 17 Sur 0 -- -- 77
2019-10-12 21:00:00 17.1 6 Sur 13 Sudoeste 0 -- -- 72
2019-10-12 20:00:00 19 3 Sudeste 20 Sur 0 -- -- 65
2019-10-12 19:00:00 20.6 6 Sudeste 24 Sudeste 0 -- -- 59
2019-10-12 18:00:00 22 11 Sudeste 25 Sudeste 0 -- -- 50
2019-10-12 17:00:00 22.7 17 Sudeste 28 Sudeste 0 -- -- 46
2019-10-12 16:00:00 24.2 14 Sudeste 34 Sudeste 0 -- -- 35
2019-10-12 15:00:00 24 10 Sur 19 Sudeste 0 -- -- 37
2019-10-12 14:00:00 23.4 8 Sudeste 19 Sudeste 0 -- -- 39
2019-10-12 13:00:00 22.7 8 Sur 22 Sudoeste 0 -- -- 36
2019-10-12 12:00:00 21.1 9 Sur 16 Sur 0 -- -- 45
2019-10-12 11:00:00 19 6 Este 23 Sur 0 -- -- 53
2019-10-12 10:00:00 16.6 10 Sur 20 Sudoeste 0 -- -- 62
2019-10-12 09:00:00 13.4 0 Calma 9 Norte 0 -- -- 85
2019-10-12 08:00:00 13.8 4 Norte 10 Norte 0 -- -- 82
2019-10-12 07:00:00 14.6 3 Noroeste 17 Sudoeste 0 -- -- 79
2019-10-12 06:00:00 15.6 12 Sur 27 Sur 0 -- -- 76
2019-10-12 05:00:00 15.8 16 Sur 26 Sur 0 -- -- 77
2019-10-12 04:00:00 15.8 13 Sur 32 Sur 0 -- -- 81
2019-10-12 03:00:00 15.9 17 Sur 28 Sur 0 -- -- 80
2019-10-12 02:00:00 15.8 10 Sur 24 Sur 0 -- -- 81
2019-10-12 01:00:00 16.1 13 Sur 25 Sur 0 -- -- 81
2019-10-12 00:00:00 16.7 14 Sur 33 Sur 0 -- -- 78
2019-10-11 23:00:00 17.5 9 Sur 18 Sudoeste 0 -- -- 73
2019-10-11 22:00:00 18.3 10 Sur 19 Sur 0 -- -- 70
2019-10-11 21:00:00 18.8 7 Sur 16 Sur 0 -- -- 66
2019-10-11 20:00:00 20.1 5 Sur 15 Sudeste 0 -- -- 59
2019-10-11 19:00:00 21.9 13 Sur 23 Sudoeste 0 -- -- 47
2019-10-11 18:00:00 23.6 15 Sur 28 Sudeste 0 -- -- 40
2019-10-11 17:00:00 23.9 17 Sudeste 31 Sur 0 -- -- 39
2019-10-11 16:00:00 25.1 16 Sudeste 30 Sur 0 -- -- 40
2019-10-11 15:00:00 24.9 14 Sudeste 24 Sur 0 -- -- 42
2019-10-11 14:00:00 24.8 23 Sudeste 38 Sudeste 0 -- -- 41
2019-10-11 13:00:00 24.3 19 Sudeste 31 Sudeste 0 -- -- 39
2019-10-11 12:00:00 21.3 4 Este 13 Este 0 -- -- 62
2019-10-11 11:00:00 17.3 8 Sudeste 21 Sur 0 -- -- 75
2019-10-11 10:00:00 13.6 13 Sudeste 28 Sur 0 -- -- 84
2019-10-11 09:00:00 11.6 13 Sur 23 Sudeste 0 -- -- 91
2019-10-11 08:00:00 11.3 10 Sudeste 23 Oeste 0 -- -- 92
2019-10-11 07:00:00 12.1 13 Sudoeste 20 Sudoeste 0 -- -- 92
2019-10-11 06:00:00 12.4 15 Sudoeste 23 Sudoeste 0 -- -- 93
2019-10-11 05:00:00 12.9 14 Sudoeste 21 Sudoeste 0 -- -- 92
2019-10-11 04:00:00 12 4 Sudeste 9 Sur 0 -- -- 91
2019-10-11 03:00:00 13.1 4 Sur 12 Sur 0 -- -- 89
2019-10-11 02:00:00 13.9 6 Sur 14 Sudoeste 0 -- -- 88
2019-10-11 01:00:00 14.2 5 Sudoeste 14 Sudoeste 0 -- -- 84
2019-10-11 00:00:00 14.9 8 Sudoeste 20 Sur 0 -- -- 82
2019-10-10 23:00:00 15.6 11 Sudoeste 19 Sur 0 -- -- 81
2019-10-10 22:00:00 16.4 7 Sur 23 Sur 0 -- -- 77
2019-10-10 21:00:00 17.5 18 Sur 27 Sur 0 -- -- 73
2019-10-10 20:00:00 18.9 10 Sur 19 Sur 0 -- -- 67
2019-10-10 19:00:00 19.9 9 Oeste 21 Noroeste 0 -- -- 65
2019-10-10 18:00:00 22.8 6 Noroeste 31 Noroeste 0 -- -- 55
2019-10-10 17:00:00 24.4 16 Sudeste 37 Sudeste 0 -- -- 48
2019-10-10 16:00:00 23.2 20 Sudeste 40 Sudeste 0 -- -- 53
2019-10-10 15:00:00 22.8 18 Sudeste 33 Sudeste 0 -- -- 53
2019-10-10 14:00:00 21.6 18 Sudeste 29 Sudeste 0 -- -- 56
2019-10-10 13:00:00 21 13 Sudeste 27 Sudeste 0 -- -- 59
2019-10-10 12:00:00 19.4 16 Sudeste 28 Sudeste 0 -- -- 64
2019-10-10 11:00:00 14.4 4 Nordeste 13 Norte 0 -- -- 67
2019-10-10 10:00:00 13 3 Este 6 Este 0 -- -- 69
2019-10-10 09:00:00 11.3 4 Norte 15 Norte 0 -- -- 71
2019-10-10 08:00:00 11.2 6 Norte 12 Norte 0 -- -- 72
2019-10-10 07:00:00 11.4 0 Calma 6 Sudeste 0 -- -- 75
2019-10-10 06:00:00 12.2 0 Calma 5 Norte 0 -- -- 72
2019-10-10 05:00:00 12.6 0 Calma 9 Norte 0 -- -- 71
2019-10-10 04:00:00 12.7 4 Norte 9 Norte 0 -- -- 70
2019-10-10 03:00:00 12.8 3 Norte 7 Norte 0 -- -- 71
2019-10-10 02:00:00 12.6 5 Norte 12 Nordeste 0 -- -- 71
2019-10-10 01:00:00 13 6 Nordeste 14 Norte 0 -- -- 71
2019-10-10 00:00:00 13.5 8 Nordeste 19 Nordeste 0 -- -- 71
2019-10-09 23:00:00 14 8 Nordeste 13 Norte 0 -- -- 72
2019-10-09 22:00:00 15.1 4 Norte 8 Norte 0 -- -- 70
2019-10-09 21:00:00 16.6 3 Sudeste 16 Noroeste 0 -- -- 66
2019-10-09 20:00:00 18.4 9 Noroeste 21 Noroeste 0 -- -- 61
2019-10-09 19:00:00 20.6 13 Norte 23 Norte 0 -- -- 55
2019-10-09 18:00:00 23.2 12 Norte 20 Norte 0 -- -- 49
2019-10-09 17:00:00 23.9 6 Nordeste 19 Norte 0 -- -- 46
2019-10-09 16:00:00 24 10 Norte 19 Norte 0 -- -- 47
2019-10-09 15:00:00 24.3 5 Nordeste 17 Norte 0 -- -- 46
2019-10-09 14:00:00 23.1 8 Norte 17 Norte 0 -- -- 48
2019-10-09 13:00:00 21.7 10 Nordeste 26 Norte 0 -- -- 52
2019-10-09 12:00:00 22.2 6 Este 16 Sudeste 0 -- -- 49
2019-10-09 11:00:00 19.7 3 Sudeste 8 Sudeste 0 -- -- 55
2019-10-09 10:00:00 14.6 3 Este 10 Sudeste 0 -- -- 66
2019-10-09 09:00:00 10 0 Calma 8 Noroeste 0 -- -- 80
2019-10-09 08:00:00 9.9 4 Sudoeste 13 Sudeste 0 -- -- 80
2019-10-09 07:00:00 10.4 4 Oeste 13 Sudeste 0 -- -- 78
2019-10-09 06:00:00 10.9 0 Calma 10 Sudeste 0 -- -- 76
2019-10-09 05:00:00 11.8 6 Sur 12 Sur 0 -- -- 73
2019-10-09 04:00:00 11.8 3 Noroeste 7 Oeste 0 -- -- 73
2019-10-09 03:00:00 12.9 0 Calma 8 Sudeste 0 -- -- 70
2019-10-09 02:00:00 14.5 3 Sur 15 Este 0 -- -- 65
2019-10-09 01:00:00 15.8 6 Sudeste 14 Sur 0 -- -- 62
2019-10-09 00:00:00 16.8 8 Sudeste 19 Sudoeste 0 -- -- 60
2019-10-08 23:00:00 18.2 9 Sur 21 Sudoeste 0 -- -- 51
2019-10-08 22:00:00 19.2 13 Sudoeste 17 Sudoeste 0 -- -- 47
2019-10-08 21:00:00 20.9 9 Sur 14 Oeste 0 -- -- 44
2019-10-08 20:00:00 21.6 7 Sudoeste 13 Sudoeste 0 -- -- 45
2019-10-08 19:00:00 23.1 3 Oeste 15 Nordeste 0 -- -- 49
2019-10-08 18:00:00 25.2 7 Nordeste 22 Norte 0 -- -- 45
2019-10-08 17:00:00 27 9 Nordeste 25 Este 0 -- -- 41
2019-10-08 16:00:00 26.8 11 Nordeste 22 Norte 0 -- -- 41
2019-10-08 15:00:00 26.8 5 Sudeste 19 Este 0 -- -- 39
2019-10-08 14:00:00 25.4 7 Este 18 Norte 0 -- -- 45
2019-10-08 13:00:00 22.9 6 Nordeste 13 Norte 0 -- -- 49
2019-10-08 12:00:00 21.5 3 Norte 8 Nordeste 0 -- -- 53
2019-10-08 11:00:00 18.3 3 Sudeste 20 Este 0 -- -- 61
2019-10-08 10:00:00 14.1 12 Este 24 Este 0 -- -- 72
2019-10-08 09:00:00 10.1 10 Sudeste 18 Sudeste 0 -- -- 83
2019-10-08 08:00:00 9.6 6 Sudeste 17 Este 0 -- -- 83
2019-10-08 07:00:00 9.8 4 Sudeste 11 Oeste 0 -- -- 82
2019-10-08 06:00:00 10.2 4 Sur 12 Este 0 -- -- 79
2019-10-08 05:00:00 10.6 4 Oeste 10 Oeste 0 -- -- 78
2019-10-08 04:00:00 10.7 6 Sur 10 Sur 0 -- -- 79
2019-10-08 03:00:00 10.9 3 Sudeste 9 Oeste 0 -- -- 79
2019-10-08 02:00:00 11.9 3 Sur 13 Noroeste 0 -- -- 74
2019-10-08 01:00:00 13.1 0 Calma 10 Sur 0 -- -- 71
2019-10-08 00:00:00 15 9 Sur 13 Sudeste 0 -- -- 65
2019-10-07 23:00:00 14.6 4 Sur 13 Norte 0 -- -- 66
2019-10-07 22:00:00 15.6 2 Sur 12 Norte 0 -- -- 61
2019-10-07 21:00:00 16.8 8 Noroeste 10 Noroeste 0 -- -- 58
2019-10-07 20:00:00 19.4 2 Oeste 23 Noroeste 0 -- -- 49
2019-10-07 19:00:00 21.8 12 Noroeste 30 Noroeste 0 -- -- 42
2019-10-07 18:00:00 23.2 15 Noroeste 41 Noroeste 0 -- -- 40
2019-10-07 17:00:00 23.4 24 Noroeste 44 Noroeste 0 -- -- 38
2019-10-07 16:00:00 23.3 25 Noroeste 48 Oeste 0 -- -- 37
2019-10-07 15:00:00 23.1 23 Noroeste 40 Oeste 0 -- -- 38
2019-10-07 14:00:00 23.1 25 Noroeste 45 Noroeste 0 -- -- 33
2019-10-07 13:00:00 21.5 23 Noroeste 44 Noroeste 0 -- -- 34
2019-10-07 12:00:00 20 28 Noroeste 54 Norte 0 -- -- 31
2019-10-07 11:00:00 17.4 30 Noroeste 44 Noroeste 0 -- -- 30
2019-10-07 10:00:00 15.1 19 Norte 34 Noroeste 0 -- -- 35
2019-10-07 09:00:00 10.8 9 Norte 17 Norte 0 -- -- 59
2019-10-07 08:00:00 7.4 3 Sur 10 Sudeste 0 -- -- 90
2019-10-07 07:00:00 6.9 2 Sudoeste 11 Oeste 0 -- -- 94
2019-10-07 06:00:00 6.9 2 Sur 5 Sur 0 -- -- 93
2019-10-07 05:00:00 7 3 Noroeste 5 Oeste 0 -- -- 92
2019-10-07 04:00:00 8 3 Noroeste 7 Oeste 0 -- -- 92
2019-10-07 03:00:00 8.8 0 Calma 6 Oeste 0 -- -- 88
2019-10-07 02:00:00 9.9 4 Noroeste 6 Oeste 0 -- -- 85
2019-10-07 01:00:00 10.8 6 Noroeste 9 Nordeste 0 -- -- 84
2019-10-07 00:00:00 12.1 2 Norte 11 Noroeste 0 -- -- 80
2019-10-06 23:00:00 13.4 0 Calma 16 Noroeste 0 -- -- 75
2019-10-06 22:00:00 14.6 5 Nordeste 23 Norte 0 -- -- 71
2019-10-06 21:00:00 16.3 5 Sudeste 9 Sur 0 -- -- 59
2019-10-06 20:00:00 18.1 2 Oeste 11 Este 0 -- -- 53
2019-10-06 19:00:00 21 4 Nordeste 15 Norte 0 -- -- 47
2019-10-06 18:00:00 22.1 8 Norte 18 Norte 0 -- -- 43
2019-10-06 17:00:00 23 9 Norte 19 Noroeste 0 -- -- 41
2019-10-06 16:00:00 23.1 6 Nordeste 15 Nordeste 0 -- -- 41
2019-10-06 15:00:00 22 9 Nordeste 20 Este 0 -- -- 44
2019-10-06 14:00:00 22.5 6 Norte 22 Sudeste 0 -- -- 44
2019-10-06 13:00:00 21.3 12 Sudeste 23 Norte 0 -- -- 48
2019-10-06 12:00:00 20.2 12 Norte 23 Norte 0 -- -- 48
2019-10-06 11:00:00 17.2 7 Este 15 Este 0 -- -- 58
2019-10-06 10:00:00 12.4 9 Sudeste 17 Este 0 -- -- 69
2019-10-06 09:00:00 8.6 6 Este 20 Este 0 -- -- 80
2019-10-06 08:00:00 8.4 12 Sudeste 20 Sudeste 0 -- -- 79
2019-10-06 07:00:00 8.7 7 Sudeste 20 Sudeste 0 -- -- 77
2019-10-06 06:00:00 8.7 5 Sudeste 11 Sudeste 0 -- -- 77
2019-10-06 05:00:00 8.8 5 Sudeste 14 Sudeste 0 -- -- 75
2019-10-06 04:00:00 9.6 3 Sur 14 Este 0 -- -- 71
2019-10-06 03:00:00 10 3 Sudeste 11 Sudeste 0 -- -- 68
2019-10-06 02:00:00 10.9 4 Sudeste 10 Sudeste 0 -- -- 65
2019-10-06 01:00:00 11.8 3 Sur 9 Sudeste 0 -- -- 62
2019-10-06 00:00:00 13.3 0 Calma 8 Sudeste 0 -- -- 59
2019-10-05 23:00:00 14.2 0 Calma 9 Sur 0 -- -- 57
2019-10-05 22:00:00 15.5 4 Sur 10 Sur 0 -- -- 55
2019-10-05 21:00:00 17 2 Este 8 Sur 0 -- -- 54
2019-10-05 20:00:00 19.4 0 Calma 9 Norte 0 -- -- 45
2019-10-05 19:00:00 23.2 3 Norte 15 Sudeste 0 -- -- 38
2019-10-05 18:00:00 24.4 4 Norte 18 Norte 0 -- -- 39
2019-10-05 17:00:00 24.6 9 Norte 23 Norte 0 -- -- 40
2019-10-05 16:00:00 24.3 6 Norte 17 Nordeste 0 -- -- 40
2019-10-05 15:00:00 24 9 Nordeste 19 Norte 0 -- -- 42
2019-10-05 14:00:00 22.4 7 Norte 20 Nordeste 0 -- -- 45
2019-10-05 13:00:00 23 8 Nordeste 17 Norte 0 -- -- 45
2019-10-05 12:00:00 20.1 4 Norte 13 Este 0 -- -- 48
2019-10-05 11:00:00 17.1 8 Este 21 Sudeste 0 -- -- 58
2019-10-05 10:00:00 12 14 Sudeste 24 Este 0 -- -- 67
2019-10-05 09:00:00 8.5 13 Sudeste 24 Este 0 -- -- 74
2019-10-05 08:00:00 7.9 9 Sudeste 19 Sudeste 0 -- -- 74
2019-10-05 07:00:00 8.1 7 Sudeste 17 Sudeste 0 -- -- 72
2019-10-05 06:00:00 7.8 0 Calma 8 Sudeste 0 -- -- 72
2019-10-05 05:00:00 8.9 5 Sudeste 18 Sudeste 0 -- -- 69
2019-10-05 04:00:00 9.3 2 Norte 8 Sur 0 -- -- 66
2019-10-05 03:00:00 9.6 6 Sur 10 Sudeste 0 -- -- 66
2019-10-05 02:00:00 11.5 3 Sur 9 Sur 0 -- -- 59
2019-10-05 01:00:00 12 6 Noroeste 12 Oeste 0 -- -- 57
2019-10-05 00:00:00 14.9 5 Sudeste 15 Sudeste 0 -- -- 48
2019-10-04 23:00:00 16 7 Sudeste 14 Este 0 -- -- 46
2019-10-04 22:00:00 17.4 6 Sudoeste 18 Sudoeste 0 -- -- 41
2019-10-04 21:00:00 18.6 6 Sudoeste 19 Sudoeste 0 -- -- 38
2019-10-04 20:00:00 20.3 8 Sudoeste 17 Sudoeste 0 -- -- 35
2019-10-04 19:00:00 22.7 10 Sudoeste 28 Oeste 0 -- -- 32
2019-10-04 18:00:00 25.6 8 Nordeste 17 Norte 0 -- -- 30
2019-10-04 17:00:00 25.5 10 Norte 23 Norte 0 -- -- 30
2019-10-04 16:00:00 25.3 9 Norte 22 Norte 0 -- -- 32
2019-10-04 15:00:00 24.2 8 Norte 20 Nordeste 0 -- -- 35
2019-10-04 14:00:00 22.8 12 Norte 24 Nordeste 0 -- -- 37
2019-10-04 13:00:00 23.6 8 Este 18 Nordeste 0 -- -- 34
2019-10-04 12:00:00 21.7 9 Este 15 Este 0 -- -- 37
2019-10-04 11:00:00 16.6 8 Este 20 Sudeste 0 -- -- 50
2019-10-04 10:00:00 11.7 14 Este 24 Sudeste 0 -- -- 61
2019-10-04 09:00:00 7.8 11 Sudeste 23 Sudeste 0 -- -- 72
2019-10-04 08:00:00 7.3 9 Sudeste 19 Este 0 -- -- 71
2019-10-04 07:00:00 7.6 7 Sudeste 15 Este 0 -- -- 70
2019-10-04 06:00:00 8 7 Sudeste 15 Sudeste 0 -- -- 68
2019-10-04 05:00:00 8 3 Sur 9 Sudeste 0 -- -- 67
2019-10-04 04:00:00 8.8 5 Sudeste 10 Oeste 0 -- -- 64
2019-10-04 03:00:00 9.2 3 Noroeste 8 Oeste 0 -- -- 62
2019-10-04 02:00:00 10.4 5 Sudeste 11 Sudeste 0 -- -- 58
2019-10-04 01:00:00 11.5 2 Oeste 12 Sur 0 -- -- 53
2019-10-04 00:00:00 12.1 4 Sudeste 8 Sudeste 0 -- -- 52
2019-10-03 23:00:00 14.2 0 Calma 10 Sudeste 0 -- -- 46
2019-10-03 22:00:00 16.4 0 Calma 13 Noroeste 0 -- -- 41
2019-10-03 21:00:00 18.7 11 Noroeste 22 Noroeste 0 -- -- 37
2019-10-03 20:00:00 20 14 Noroeste 23 Noroeste 0 -- -- 28
2019-10-03 19:00:00 22.3 13 Noroeste 22 Noroeste 0 -- -- 25
2019-10-03 18:00:00 24.4 12 Noroeste 28 Norte 0 -- -- 21
2019-10-03 17:00:00 24.8 13 Noroeste 30 Norte 0 -- -- 21
2019-10-03 16:00:00 24.1 12 Norte 23 Norte 0 -- -- 18
2019-10-03 15:00:00 23.3 11 Norte 25 Nordeste 0 -- -- 20
2019-10-03 14:00:00 21.2 9 Norte 17 Norte 0 -- -- 29
2019-10-03 13:00:00 19.4 11 Nordeste 24 Nordeste 0 -- -- 39
2019-10-03 12:00:00 17.1 3 Nordeste 8 Nordeste 0 -- -- 49
2019-10-03 11:00:00 12 3 Nordeste 8 Sudeste 0 -- -- 61
2019-10-03 10:00:00 8.3 4 Este 12 Sudeste 0 -- -- 79
2019-10-03 09:00:00 4.4 3 Noroeste 13 Sudeste 0 -- -- 91
2019-10-03 08:00:00 4.3 3 Sudoeste 18 Sudeste 0 -- -- 91
2019-10-03 07:00:00 4.5 0 Calma 5 Sudeste 0 -- -- 90
2019-10-03 06:00:00 5 3 Oeste 6 Oeste 0 -- -- 90
2019-10-03 05:00:00 5.4 0 Calma 7 Noroeste 0 -- -- 90
2019-10-03 04:00:00 5.8 4 Noroeste 9 Noroeste 0 -- -- 88
2019-10-03 03:00:00 6.3 4 Sudeste 8 Sudeste 0 -- -- 86
2019-10-03 02:00:00 7.1 4 Noroeste 9 Oeste 0 -- -- 86
2019-10-03 01:00:00 7.6 5 Sudeste 12 Noroeste 0 -- -- 82
2019-10-03 00:00:00 8.8 5 Noroeste 11 Oeste 0 -- -- 77
2019-10-02 23:00:00 9.8 4 Oeste 10 Noroeste 0 -- -- 74
2019-10-02 22:00:00 11.8 3 Sudoeste 17 Oeste 0 -- -- 65
2019-10-02 21:00:00 13.1 5 Noroeste 13 Noroeste 0 -- -- 60
2019-10-02 20:00:00 15.6 10 Noroeste 26 Norte 0 -- -- 52
2019-10-02 19:00:00 17.3 11 Noroeste 31 Noroeste 0 -- -- 45
2019-10-02 18:00:00 18.4 15 Noroeste 36 Noroeste 0 -- -- 42
2019-10-02 17:00:00 18.4 20 Noroeste 39 Norte 0 -- -- 43
2019-10-02 16:00:00 17.9 21 Noroeste 34 Norte 0 -- -- 45
2019-10-02 15:00:00 18 21 Noroeste 35 Noroeste 0 -- -- 44
2019-10-02 14:00:00 18.2 21 Noroeste 38 Noroeste 0 -- -- 42
2019-10-02 13:00:00 17 17 Noroeste 41 Noroeste 0 -- -- 46
2019-10-02 12:00:00 15.3 23 Noroeste 36 Norte 0 -- -- 53
2019-10-02 11:00:00 14.1 18 Noroeste 30 Noroeste 0 -- -- 64
2019-10-02 10:00:00 11.6 7 Noroeste 28 Noroeste 0 -- -- 74
2019-10-02 09:00:00 11.3 13 Noroeste 37 Noroeste 0 -- -- 73
2019-10-02 08:00:00 10.5 0 Calma 19 Noroeste 0 -- -- 71
2019-10-02 07:00:00 11.9 12 Norte 25 Noroeste 0 -- -- 62
2019-10-02 06:00:00 12.2 8 Noroeste 24 Oeste 0 -- -- 65
2019-10-02 05:00:00 12.9 13 Noroeste 25 Noroeste 0 -- -- 64
2019-10-02 04:00:00 12.7 7 Noroeste 16 Noroeste 0 -- -- 65
2019-10-02 03:00:00 11.3 2 Sur 9 Sudeste 0 -- -- 70
2019-10-02 02:00:00 13.8 4 Sudeste 23 Noroeste 0 -- -- 62
2019-10-02 01:00:00 15.7 12 Noroeste 24 Noroeste 0 -- -- 57
2019-10-02 00:00:00 15.1 5 Noroeste 17 Noroeste 0 -- -- 59
2019-10-01 23:00:00 15.8 3 Sudeste 8 Noroeste 0 -- -- 54
2019-10-01 22:00:00 17.4 6 Noroeste 23 Norte 0 -- -- 49
2019-10-01 21:00:00 18.3 8 Noroeste 18 Noroeste 0 -- -- 42
2019-10-01 20:00:00 20.3 10 Sudoeste 19 Sudoeste 0 -- -- 34
2019-10-01 19:00:00 22.2 8 Oeste 21 Oeste 0 -- -- 30
2019-10-01 18:00:00 24.6 9 Oeste 25 Sudoeste 0 -- -- 26
2019-10-01 17:00:00 25.2 13 Oeste 25 Oeste 0 -- -- 26
2019-10-01 16:00:00 26.1 10 Sudoeste 25 Oeste 0 -- -- 26
2019-10-01 15:00:00 25.7 14 Oeste 36 Oeste 0 -- -- 25
2019-10-01 14:00:00 25.8 15 Oeste 33 Oeste 0 -- -- 26
2019-10-01 13:00:00 25.2 9 Oeste 30 Oeste 0 -- -- 26
2019-10-01 12:00:00 24.7 12 Sudoeste 27 Sudoeste 0 -- -- 29
2019-10-01 11:00:00 21.8 9 Sur 20 Sudeste 0 -- -- 36
2019-10-01 10:00:00 15.3 14 Sudeste 21 Sudeste 0 -- -- 50
2019-10-01 09:00:00 9.8 6 Noroeste 18 Sudeste 0 -- -- 66
2019-10-01 08:00:00 9.1 6 Sudeste 15 Este 0 -- -- 66
2019-10-01 07:00:00 9 3 Este 22 Sudeste 0 -- -- 67
2019-10-01 06:00:00 9 6 Sudeste 19 Sudeste 0 -- -- 68
2019-10-01 05:00:00 9.7 3 Sur 18 Este 0 -- -- 65
2019-10-01 04:00:00 9.9 5 Noroeste 18 Sudeste 0 -- -- 65
2019-10-01 03:00:00 11.2 2 Sudeste 8 Este 0 -- -- 61
2019-10-01 02:00:00 12.2 0 Calma 5 Sudeste 0 -- -- 57
2019-10-01 01:00:00 13.8 2 Sudeste 8 Sudeste 0 -- -- 53
2019-10-01 00:00:00 15.2 2 Noroeste 15 Este 0 -- -- 48
2019-09-30 23:00:00 17 5 Sudeste 15 Sudoeste 0 -- -- 44
2019-09-30 22:00:00 18.5 13 Sudoeste 16 Sudoeste 0 -- -- 40
2019-09-30 21:00:00 20.1 6 Sudoeste 13 Sudoeste 0 -- -- 37
2019-09-30 20:00:00 22.3 8 Sudoeste 18 Oeste 0 -- -- 33
2019-09-30 19:00:00 24.8 9 Oeste 20 Sudoeste 0 -- -- 28
2019-09-30 18:00:00 27.4 10 Sur 22 Sudoeste 0 -- -- 22
2019-09-30 17:00:00 28.6 8 Sudoeste 23 Sudoeste 0 -- -- 23
2019-09-30 16:00:00 28.1 6 Oeste 17 Oeste 0 -- -- 23
2019-09-30 15:00:00 27.9 7 Sudeste 22 Sudeste 0 -- -- 27
2019-09-30 14:00:00 26.8 12 Este 22 Este 0 -- -- 29
2019-09-30 13:00:00 26.3 8 Este 17 Sudeste 0 -- -- 29
2019-09-30 12:00:00 22.7 5 Este 18 Este 0 -- -- 37
2019-09-30 11:00:00 17.8 13 Este 23 Sudeste 0 -- -- 45
2019-09-30 10:00:00 13.1 15 Este 27 Este 0 -- -- 56
2019-09-30 09:00:00 9 12 Sudeste 23 Sudeste 0 -- -- 68
2019-09-30 08:00:00 8.1 5 Este 18 Sudeste 0 -- -- 71
2019-09-30 07:00:00 8.6 5 Sudeste 15 Sudeste 0 -- -- 69
2019-09-30 06:00:00 9 5 Este 17 Sudeste 0 -- -- 69
2019-09-30 05:00:00 9.4 4 Sudeste 13 Este 0 -- -- 69
2019-09-30 04:00:00 10.1 2 Sudoeste 13 Este 0 -- -- 67
2019-09-30 03:00:00 11 0 Calma 8 Este 0 -- -- 64
2019-09-30 02:00:00 11.9 3 Oeste 9 Sudeste 0 -- -- 61
2019-09-30 01:00:00 14 4 Sudeste 19 Este 0 -- -- 55
2019-09-30 00:00:00 15.4 12 Sudeste 18 Sudeste 0 -- -- 51
2019-09-29 23:00:00 16.3 10 Sudeste 17 Sudeste 0 -- -- 49
2019-09-29 22:00:00 18.2 3 Sur 13 Sudoeste 0 -- -- 44
2019-09-29 21:00:00 20.7 9 Sudoeste 16 Sudoeste 0 -- -- 37
2019-09-29 20:00:00 22.3 11 Sudoeste 16 Sudoeste 0 -- -- 33
2019-09-29 19:00:00 24.4 9 Sudoeste 15 Oeste 0 -- -- 27
2019-09-29 18:00:00 27.4 6 Sudoeste 19 Oeste 0 -- -- 25
2019-09-29 17:00:00 27.8 6 Oeste 22 Oeste 0 -- -- 23
2019-09-29 16:00:00 27.7 11 Oeste 26 Noroeste 0 -- -- 23
2019-09-29 15:00:00 27.4 14 Oeste 23 Oeste 0 -- -- 24
2019-09-29 14:00:00 27.2 10 Sudoeste 26 Sur 0 -- -- 24
2019-09-29 13:00:00 25.8 10 Oeste 23 Noroeste 0 -- -- 28
2019-09-29 12:00:00 23.5 4 Este 9 Nordeste 0 -- -- 45
2019-09-29 11:00:00 17.7 3 Sudeste 12 Sudeste 0 -- -- 61
2019-09-29 10:00:00 13.4 8 Sudeste 19 Sudeste 0 -- -- 73
2019-09-29 09:00:00 9.4 9 Sudeste 19 Sudeste 0 -- -- 84
2019-09-29 08:00:00 8.4 6 Sudeste 22 Sudeste 0 -- -- 85
2019-09-29 07:00:00 8.9 5 Este 14 Sudeste 0 -- -- 81
2019-09-29 06:00:00 8.9 0 Calma 5 Sudoeste 0 -- -- 81
2019-09-29 05:00:00 9.4 0 Calma 5 Sudeste 0 -- -- 75
2019-09-29 04:00:00 10 0 Calma 5 Sudeste 0 -- -- 71
2019-09-29 03:00:00 10.5 0 Calma 6 Sur 0 -- -- 66
2019-09-29 02:00:00 11.4 0 Calma 7 Oeste 0 -- -- 60
2019-09-29 01:00:00 12.9 3 Noroeste 13 Sudeste 0 -- -- 55
2019-09-29 00:00:00 14.8 4 Este 17 Sudoeste 0 -- -- 50
2019-09-28 23:00:00 16.2 7 Sudoeste 14 Sudoeste 0 -- -- 51
2019-09-28 22:00:00 17.5 8 Sudoeste 14 Sudoeste 0 -- -- 40
2019-09-28 21:00:00 19.5 9 Sudoeste 18 Sudoeste 0 -- -- 37
2019-09-28 20:00:00 22.5 11 Sudoeste 20 Sudoeste 0 -- -- 30
2019-09-28 19:00:00 24.3 13 Sudeste 29 Sur 0 -- -- 29
2019-09-28 18:00:00 25.9 16 Sudeste 32 Sur 0 -- -- 31
2019-09-28 17:00:00 26.6 15 Sudeste 31 Sudeste 0 -- -- 29
2019-09-28 16:00:00 26.5 16 Sudeste 37 Sudeste 0 -- -- 31
2019-09-28 15:00:00 26.2 17 Sudeste 32 Este 0 -- -- 33
2019-09-28 14:00:00 25.9 11 Sudeste 22 Sur 0 -- -- 33
2019-09-28 13:00:00 24.9 8 Sudeste 18 Sudeste 0 -- -- 35
2019-09-28 12:00:00 21.9 3 Este 14 Este 0 -- -- 44
2019-09-28 11:00:00 17.3 9 Este 22 Sudeste 0 -- -- 50
2019-09-28 10:00:00 12.7 11 Este 27 Sudeste 0 -- -- 65
2019-09-28 09:00:00 8.9 12 Sudeste 24 Este 0 -- -- 74
2019-09-28 08:00:00 8.3 8 Sudeste 20 Este 0 -- -- 76
2019-09-28 07:00:00 8.8 11 Sudeste 21 Sudeste 0 -- -- 76
2019-09-28 06:00:00 9.2 8 Sudeste 22 Sudeste 0 -- -- 75
2019-09-28 05:00:00 10 8 Este 17 Este 0 -- -- 72
2019-09-28 04:00:00 10.4 4 Este 12 Este 0 -- -- 70
2019-09-28 03:00:00 11 5 Sudeste 12 Este 0 -- -- 68
2019-09-28 02:00:00 11.9 3 Sur 9 Sudeste 0 -- -- 66
2019-09-28 01:00:00 13.5 3 Este 9 Sudoeste 0 -- -- 60
2019-09-28 00:00:00 14.7 5 Sur 15 Este 0 -- -- 56
2019-09-27 23:00:00 16.2 5 Sudeste 15 Sudeste 0 -- -- 52
2019-09-27 22:00:00 17.7 2 Sur 13 Sur 0 -- -- 47
2019-09-27 21:00:00 20 8 Sur 14 Sudoeste 0 -- -- 41
2019-09-27 20:00:00 21.8 10 Sudoeste 15 Sudoeste 0 -- -- 36
2019-09-27 19:00:00 23.8 9 Sudoeste 19 Oeste 0 -- -- 34
2019-09-27 18:00:00 26.5 8 Oeste 21 Oeste 0 -- -- 31
2019-09-27 17:00:00 26.1 9 Nordeste 21 Norte 0 -- -- 38
2019-09-27 16:00:00 26.3 9 Norte 32 Noroeste 0 -- -- 38
2019-09-27 15:00:00 25.9 18 Oeste 28 Noroeste 0 -- -- 40
2019-09-27 14:00:00 26.2 13 Sur 24 Sur 0 -- -- 34
2019-09-27 13:00:00 24.9 3 Este 18 Sudeste 0 -- -- 43
2019-09-27 12:00:00 23.2 11 Sudeste 17 Sudeste 0 -- -- 46
2019-09-27 11:00:00 18.8 10 Este 19 Este 0 -- -- 58
2019-09-27 10:00:00 14.5 13 Sudeste 23 Este 0 -- -- 69
2019-09-27 09:00:00 10.9 14 Sudeste 23 Sudeste 0 -- -- 81
2019-09-27 08:00:00 10.5 13 Sudeste 27 Sudeste 0 -- -- 82
2019-09-27 07:00:00 10.6 4 Oeste 19 Este 0 -- -- 81
2019-09-27 06:00:00 11 9 Sudeste 20 Sudeste 0 -- -- 81
2019-09-27 05:00:00 11.4 6 Sudeste 15 Sudeste 0 -- -- 79
2019-09-27 04:00:00 11.7 3 Sudeste 10 Este 0 -- -- 77
2019-09-27 03:00:00 12.8 0 Calma 9 Sudeste 0 -- -- 74
2019-09-27 02:00:00 13.5 2 Sur 16 Sudeste 0 -- -- 71
2019-09-27 01:00:00 15.1 9 Sudeste 12 Sudeste 0 -- -- 66
2019-09-27 00:00:00 16.8 6 Sudeste 18 Sudoeste 0 -- -- 59
2019-09-26 23:00:00 17.7 7 Sur 13 Sur 0 -- -- 57
2019-09-26 22:00:00 18.6 8 Sudoeste 13 Sudoeste 0 -- -- 54
2019-09-26 21:00:00 19.7 6 Sudoeste 12 Sudoeste 0 -- -- 51
2019-09-26 20:00:00 22 8 Oeste 17 Sudoeste 0 -- -- 44
2019-09-26 19:00:00 24.2 9 Sudoeste 23 Sur 0 -- -- 38
2019-09-26 18:00:00 26.5 9 Sur 27 Sudeste 0 -- -- 37
2019-09-26 17:00:00 26.2 19 Sudeste 31 Sudeste 0 -- -- 37
2019-09-26 16:00:00 26.4 13 Sudeste 24 Sudeste 0 -- -- 37
2019-09-26 15:00:00 25.6 3 Norte 26 Este 0 -- -- 39
2019-09-26 14:00:00 24.7 8 Sudeste 18 Sudeste 0 -- -- 41
2019-09-26 13:00:00 23.4 8 Sudeste 19 Sudeste 0 -- -- 41
2019-09-26 12:00:00 21 6 Este 15 Sudeste 0 -- -- 49
2019-09-26 11:00:00 17.1 10 Sudeste 17 Este 0 -- -- 62
2019-09-26 10:00:00 12.9 9 Sudeste 21 Este 0 -- -- 72
2019-09-26 09:00:00 9 11 Este 18 Este 0 -- -- 86
2019-09-26 08:00:00 8.4 6 Sudeste 15 Este 0 -- -- 86
2019-09-26 07:00:00 8.4 4 Noroeste 14 Sudeste 0 -- -- 85
2019-09-26 06:00:00 9.1 6 Sudeste 13 Nordeste 0 -- -- 84
2019-09-26 05:00:00 9.3 2 Sudeste 13 Este 0 -- -- 83
2019-09-26 04:00:00 9.7 3 Sudoeste 7 Sudeste 0 -- -- 82
2019-09-26 03:00:00 10.2 0 Calma 7 Sudeste 0 -- -- 80
2019-09-26 02:00:00 10.9 3 Sur 6 Sudoeste 0 -- -- 77
2019-09-26 01:00:00 11.7 0 Calma 6 Sur 0 -- -- 74
2019-09-26 00:00:00 12.4 4 Sur 6 Oeste 0 -- -- 71
2019-09-25 23:00:00 13.5 2 Sur 8 Oeste 0 -- -- 67
2019-09-25 22:00:00 14.5 4 Sudoeste 9 Oeste 0 -- -- 63
2019-09-25 21:00:00 16.2 0 Calma 15 Noroeste 0 -- -- 56
2019-09-25 20:00:00 17.9 8 Noroeste 16 Norte 0 -- -- 49
2019-09-25 19:00:00 20.1 5 Nordeste 15 Este 0 -- -- 46
2019-09-25 18:00:00 20.9 9 Norte 18 Nordeste 0 -- -- 46
2019-09-25 17:00:00 21.6 12 Sudeste 26 Sudeste 0 -- -- 48
2019-09-25 16:00:00 21.5 8 Este 20 Nordeste 0 -- -- 49
2019-09-25 15:00:00 19.9 7 Nordeste 23 Norte 0 -- -- 51
2019-09-25 14:00:00 19.7 7 Norte 15 Norte 0 -- -- 55
2019-09-25 13:00:00 18 7 Norte 14 Norte 0 -- -- 58
2019-09-25 12:00:00 16.5 5 Nordeste 19 Norte 0 -- -- 65
2019-09-25 11:00:00 15 9 Norte 23 Oeste 0 -- -- 70
2019-09-25 10:00:00 13.1 5 Nordeste 9 Nordeste 0 -- -- 82
2019-09-25 09:00:00 11.5 2 Oeste 7 Oeste 0 -- -- 93
2019-09-25 08:00:00 10.7 0 Calma 8 Noroeste 0 -- -- 91
2019-09-25 07:00:00 11.4 0 Calma 5 Oeste 0 -- -- 92
2019-09-25 06:00:00 11.8 0 Calma 5 Noroeste 0 -- -- 91
2019-09-25 05:00:00 12.3 0 Calma 4 Noroeste 0 -- -- 89
2019-09-25 04:00:00 13 3 Sudeste 7 Oeste 0 -- -- 84
2019-09-25 03:00:00 13.1 6 Oeste 10 Sudeste 0 -- -- 83
2019-09-25 02:00:00 13.2 0 Calma 9 Oeste 0 -- -- 78
2019-09-25 01:00:00 13.8 0 Calma 8 Oeste 0 -- -- 74
2019-09-25 00:00:00 14.8 2 Noroeste 6 Oeste 0 -- -- 68
2019-09-24 23:00:00 16.9 0 Calma 16 Sudoeste 0 -- -- 60
2019-09-24 22:00:00 18.1 8 Sudoeste 14 Sudoeste 0 -- -- 56
2019-09-24 21:00:00 19.7 10 Sudoeste 14 Sudoeste 0 -- -- 51
2019-09-24 20:00:00 20.9 8 Oeste 18 Oeste 0 -- -- 49
2019-09-24 19:00:00 22.8 8 Oeste 23 Oeste 0 -- -- 45
2019-09-24 18:00:00 24.9 10 Oeste 27 Sudoeste 0 -- -- 40
2019-09-24 17:00:00 25.7 11 Sudoeste 30 Sudoeste 0 -- -- 36
2019-09-24 16:00:00 25.6 12 Oeste 31 Sudoeste 0 -- -- 33
2019-09-24 15:00:00 25 18 Noroeste 32 Noroeste 0 -- -- 30
2019-09-24 14:00:00 24.8 12 Oeste 28 Sudoeste 0 -- -- 33
2019-09-24 13:00:00 24.4 12 Oeste 26 Sur 0 -- -- 37
2019-09-24 12:00:00 22.9 10 Oeste 24 Oeste 0 -- -- 37
2019-09-24 11:00:00 20.5 10 Sudeste 14 Este 0 -- -- 49
2019-09-24 10:00:00 14.3 6 Sur 13 Sudeste 0 -- -- 68
2019-09-24 09:00:00 9.2 3 Sudeste 9 Sudeste 0 -- -- 86
2019-09-24 08:00:00 8.8 0 Calma 10 Sur 0 -- -- 85
2019-09-24 07:00:00 9.5 6 Sur 13 Sudeste 0 -- -- 82
2019-09-24 06:00:00 10.4 5 Sudeste 17 Este 0 -- -- 78
2019-09-24 05:00:00 10.4 4 Sudeste 12 Sudeste 0 -- -- 78
2019-09-24 04:00:00 11.3 9 Sudeste 14 Sudeste 0 -- -- 76
2019-09-24 03:00:00 12.5 9 Sur 21 Sudeste 0 -- -- 72
2019-09-24 02:00:00 12.5 5 Sudeste 13 Este 0 -- -- 72
2019-09-24 01:00:00 13.9 6 Sudeste 13 Sudeste 0 -- -- 68
2019-09-24 00:00:00 14.1 0 Calma 16 Sudeste 0 -- -- 65
2019-09-23 23:00:00 14.7 11 Sudeste 18 Sudeste 0 -- -- 64
2019-09-23 22:00:00 15.8 6 Sudeste 12 Sur 0 -- -- 60
2019-09-23 21:00:00 16.8 5 Sudeste 13 Sudoeste 0 -- -- 57
2019-09-23 20:00:00 18.7 9 Oeste 15 Oeste 0 -- -- 49
2019-09-23 19:00:00 20.4 4 Norte 14 Norte 0 -- -- 52
2019-09-23 18:00:00 21.3 7 Norte 18 Norte 0 -- -- 49
2019-09-23 17:00:00 22.4 7 Nordeste 18 Nordeste 0 -- -- 46
2019-09-23 16:00:00 21.4 13 Norte 22 Norte 0 -- -- 48
2019-09-23 15:00:00 20.8 6 Sudeste 15 Este 0 -- -- 49
2019-09-23 14:00:00 20.2 5 Este 15 Sur 0 -- -- 49
2019-09-23 13:00:00 19 7 Sudeste 15 Sudeste 0 -- -- 52
2019-09-23 12:00:00 17.7 6 Sudeste 12 Sudeste 0 -- -- 57
2019-09-23 11:00:00 15 7 Este 17 Este 0 -- -- 66
2019-09-23 10:00:00 10.9 12 Este 21 Este 0 -- -- 79
2019-09-23 09:00:00 7.3 9 Este 13 Este 0 -- -- 89
2019-09-23 08:00:00 7.1 6 Sudeste 16 Sudeste 0 -- -- 89
2019-09-23 07:00:00 7.5 10 Sudeste 19 Sudeste 0 -- -- 87
2019-09-23 06:00:00 7.8 7 Este 18 Sudeste 0 -- -- 87
2019-09-23 05:00:00 7.9 4 Sudeste 10 Sudeste 0 -- -- 87
2019-09-23 04:00:00 8.6 3 Este 12 Sudeste 0 -- -- 85
2019-09-23 03:00:00 8.9 3 Sudeste 12 Sudeste 0 -- -- 85
2019-09-23 02:00:00 9.7 4 Sudeste 11 Sudeste 0 -- -- 83
2019-09-23 01:00:00 10.4 2 Este 9 Este 0 -- -- 81
2019-09-23 00:00:00 11.4 4 Sudeste 9 Sudeste 0 -- -- 79
2019-09-22 23:00:00 11.5 2 Oeste 8 Sudoeste 0 -- -- 77
2019-09-22 22:00:00 12.9 3 Noroeste 12 Sudoeste 0 -- -- 70
2019-09-22 21:00:00 13.6 6 Oeste 9 Oeste 0 -- -- 67
2019-09-22 20:00:00 16.4 6 Oeste 18 Oeste 0 -- -- 52
2019-09-22 19:00:00 18.4 8 Sudoeste 27 Sudoeste 0.2 -- -- 53
2019-09-22 18:00:00 19.9 7 Oeste 19 Oeste 0 -- -- 62
2019-09-22 17:00:00 18.8 5 Norte 21 Oeste 0.2 -- -- 73
2019-09-22 16:00:00 18.3 17 Oeste 37 Sudoeste 0 -- -- 74
2019-09-22 15:00:00 21 15 Sur 32 Sur 0 -- -- 57
2019-09-22 14:00:00 20.8 12 Sur 32 Sudoeste 0 -- -- 57
2019-09-22 13:00:00 20.3 14 Sur 28 Sur 0 -- -- 59
2019-09-22 12:00:00 19.4 6 Sudoeste 29 Sur 0 -- -- 67
2019-09-22 11:00:00 18.1 15 Sudoeste 27 Sur 0 -- -- 69
2019-09-22 10:00:00 17.4 15 Sur 28 Sur 0 -- -- 68
2019-09-22 09:00:00 16 8 Sur 18 Sur 0 -- -- 77
2019-09-22 08:00:00 15.5 9 Sudoeste 23 Sur 0 -- -- 78
2019-09-22 07:00:00 14.9 6 Sudoeste 25 Sudoeste 0 -- -- 76
2019-09-22 06:00:00 15.6 10 Sur 24 Sur 0 -- -- 74
2019-09-22 05:00:00 15.6 7 Sur 21 Sur 0 -- -- 72
2019-09-22 04:00:00 15.9 13 Sur 23 Sudeste 0 -- -- 72
2019-09-22 03:00:00 16 9 Sur 18 Sur 0 -- -- 72
2019-09-22 02:00:00 16.5 10 Sur 29 Sur 0 -- -- 71
2019-09-22 01:00:00 17.1 9 Sur 25 Sur 0 -- -- 73
2019-09-22 00:00:00 17.1 13 Sur 28 Sur 0 -- -- 75
2019-09-21 23:00:00 17 11 Sur 26 Sur 0 -- -- 76
2019-09-21 22:00:00 17.5 14 Sur 24 Sur 0 -- -- 72
2019-09-21 21:00:00 18 8 Sur 21 Sudoeste 0 -- -- 69
2019-09-21 20:00:00 18.8 14 Sur 22 Sur 0 -- -- 62
2019-09-21 19:00:00 19.9 8 Sudoeste 20 Sur 0 -- -- 57
2019-09-21 18:00:00 20.8 10 Sudoeste 25 Sudoeste 0 -- -- 53
2019-09-21 17:00:00 21.5 13 Sur 34 Sudoeste 0 -- -- 51
2019-09-21 16:00:00 22.1 11 Sudoeste 27 Sur 0 -- -- 52
2019-09-21 15:00:00 20.7 14 Sur 30 Sur 0 -- -- 53
2019-09-21 14:00:00 20.3 10 Sur 21 Oeste 0 -- -- 55
2019-09-21 13:00:00 20.6 13 Sudeste 23 Sur 0 -- -- 58
2019-09-21 12:00:00 19 11 Sur 22 Oeste 0 -- -- 63
2019-09-21 11:00:00 17.5 5 Este 18 Sur 0 -- -- 76
2019-09-21 10:00:00 14.6 14 Sur 22 Sur 0 -- -- 85
2019-09-21 09:00:00 12.5 5 Sur 14 Sudoeste 0 -- -- 92
2019-09-21 08:00:00 12.5 6 Sudeste 16 Sudoeste 0 -- -- 92
2019-09-21 07:00:00 13 9 Sudoeste 28 Sudoeste 0.6 -- -- 89
2019-09-21 06:00:00 12.7 5 Sudoeste 11 Sur 3.6 -- -- 93
2019-09-21 05:00:00 13.3 8 Sur 23 Sur 3 -- -- 92
2019-09-21 04:00:00 13.1 5 Oeste 14 Sur 1.8 -- -- 92
2019-09-21 03:00:00 13.4 9 Sur 21 Sudoeste 0 -- -- 89
2019-09-21 02:00:00 13.4 15 Sudoeste 24 Sur 3 -- -- 88
2019-09-21 01:00:00 13.5 13 Sur 32 Sur 4.8 -- -- 90
2019-09-21 00:00:00 15.3 17 Sur 38 Sudeste 0.4 -- -- 83
2019-09-20 23:00:00 16.9 12 Sur 23 Sudeste 0 -- -- 79
2019-09-20 22:00:00 17.1 8 Sur 20 Sur 0 -- -- 80
2019-09-20 21:00:00 17.1 8 Sur 24 Sudeste 0 -- -- 79
2019-09-20 20:00:00 18.2 13 Sudeste 31 Sudeste 0 -- -- 73
2019-09-20 19:00:00 18.9 21 Sur 39 Sudeste 0 -- -- 70
2019-09-20 18:00:00 20.5 21 Sudeste 41 Sur 0 -- -- 62
2019-09-20 17:00:00 20.6 21 Sudeste 36 Sudeste 0 -- -- 64
2019-09-20 16:00:00 21.2 18 Sudeste 29 Sudeste 0 -- -- 62
2019-09-20 15:00:00 22 13 Sudeste 25 Sudeste 0 -- -- 55
2019-09-20 14:00:00 21.3 13 Este 23 Sudeste 0 -- -- 62
2019-09-20 13:00:00 20.9 10 Sudeste 19 Sur 0 -- -- 62
2019-09-20 12:00:00 17.8 10 Sur 24 Sur 0 -- -- 75
2019-09-20 11:00:00 16.3 14 Sudeste 24 Sudeste 0 -- -- 80
2019-09-20 10:00:00 13.9 3 Este 13 Sudeste 0 -- -- 93
2019-09-20 09:00:00 12.2 5 Sudeste 15 Sur 0 -- -- 96
2019-09-20 08:00:00 11.8 6 Sudeste 15 Sudeste 0 -- -- 97
2019-09-20 07:00:00 11.4 9 Sudeste 16 Sudeste 0 -- -- 96
2019-09-20 06:00:00 11.1 4 Sudeste 10 Sudeste 0 -- -- 96
2019-09-20 05:00:00 11.3 0 Calma 10 Sudeste 0 -- -- 95
2019-09-20 04:00:00 11.7 5 Sudeste 14 Este 0 -- -- 93
2019-09-20 03:00:00 12.1 8 Sudeste 16 Sudeste 0 -- -- 94
2019-09-20 02:00:00 13 5 Sur 22 Sudeste 0 -- -- 93
2019-09-20 01:00:00 13.3 8 Sudeste 16 Sudeste 0 -- -- 94
2019-09-20 00:00:00 13.9 2 Oeste 8 Sur 0 -- -- 93
2019-09-19 23:00:00 14.6 0 Calma 6 Oeste 0.2 -- -- 93
2019-09-19 22:00:00 14.9 0 Calma 12 Noroeste 0 -- -- 92
2019-09-19 21:00:00 14.7 8 Oeste 45 Sudeste 12.2 -- -- 90
2019-09-19 20:00:00 17.8 7 Noroeste 19 Norte 1.2 -- -- 75
2019-09-19 19:00:00 20.1 13 Norte 31 Este 0.2 -- -- 63
2019-09-19 18:00:00 22.3 13 Este 25 Este 0 -- -- 55
2019-09-19 17:00:00 21.6 3 Nordeste 20 Sudoeste 0.2 -- -- 60
2019-09-19 16:00:00 22.6 13 Norte 23 Norte 0 -- -- 49
2019-09-19 15:00:00 25.1 9 Este 22 Norte 0 -- -- 40
2019-09-19 14:00:00 21.2 15 Norte 31 Norte 0 -- -- 55
2019-09-19 13:00:00 24 9 Sudeste 25 Sudeste 0 -- -- 47
2019-09-19 12:00:00 22.3 10 Sudeste 23 Sur 0 -- -- 55
2019-09-19 11:00:00 19.5 6 Sudeste 14 Este 0 -- -- 63
2019-09-19 10:00:00 15.2 7 Este 17 Este 0 -- -- 78
2019-09-19 09:00:00 11.1 7 Este 18 Sudeste 0 -- -- 91
2019-09-19 08:00:00 10.4 10 Sudeste 18 Sudeste 0 -- -- 91
2019-09-19 07:00:00 10.7 8 Sudeste 16 Sudeste 0 -- -- 92
2019-09-19 06:00:00 10.7 3 Noroeste 13 Este 0 -- -- 90
2019-09-19 05:00:00 11.1 3 Oeste 16 Este 0 -- -- 90
2019-09-19 04:00:00 11.1 4 Noroeste 13 Sudeste 0 -- -- 90
2019-09-19 03:00:00 11.7 4 Noroeste 12 Sudeste 0 -- -- 89
2019-09-19 02:00:00 12.9 3 Sudeste 16 Este 0 -- -- 85
2019-09-19 01:00:00 13.2 9 Sudeste 13 Sudeste 0 -- -- 85
2019-09-19 00:00:00 13.9 0 Calma 4 Sur 0 -- -- 82